KMHL/MHL METAR and TAF weather

Enter ICAO airport designator
Station Type Date Time Source
KMHL METAR 2020/11/28 19:55 UTC NOAA

KMHL 281955Z AUTO 23006KT 10SM CLR 12/00 A3017 RMK AO2


Station Type Date Time Source
KMHL Decoded METAR 2020/11/28 19:55 UTC NOAA

Station name not available
Nov 28, 2020 - 02:55 PM EST / 2020.11.28 1955 UTC
Wind: from the SW (230 degrees) at 7 MPH (6 KT):0
Visibility: 10 mile(s):0
Sky conditions: clear
Temperature: 53 F (12 C)
Dew Point: 32 F (0 C)
Relative Humidity: 43%
Pressure (altimeter): 30.17 in. Hg (1021 hPa)
ob: KMHL 281955Z AUTO 23006KT 10SM CLR 12/00 A3017 RMK AO2
cycle: 20

Station Type Date Time Source
KMHL TAF UTC NOAA

Error!

Example: see airport list